createdAt,value
2018-04-19T00:00:41.049Z,0.00
2018-04-19T00:01:40.976Z,0.00
2018-04-19T00:02:41.071Z,22.50
2018-04-19T00:03:41.051Z,22.50
2018-04-19T00:04:40.979Z,22.50
2018-04-19T00:05:40.983Z,22.50
2018-04-19T00:06:41.060Z,45.00
2018-04-19T00:07:41.054Z,22.50
2018-04-19T00:08:41.058Z,0.00
2018-04-19T00:09:40.992Z,22.50
2018-04-19T00:10:40.984Z,22.50
2018-04-19T00:11:40.989Z,22.50
2018-04-19T00:12:41.113Z,22.50
2018-04-19T00:13:41.062Z,22.50
2018-04-19T00:14:40.984Z,22.50
2018-04-19T00:15:40.986Z,22.50
2018-04-19T00:16:41.061Z,22.50
2018-04-19T00:17:41.060Z,22.50
2018-04-19T00:18:41.059Z,22.50
2018-04-19T00:19:41.063Z,22.50
2018-04-19T00:20:41.030Z,22.50
2018-04-19T00:21:40.993Z,22.50
2018-04-19T00:22:40.994Z,22.50
2018-04-19T00:23:40.993Z,22.50
2018-04-19T00:24:41.063Z,22.50
2018-04-19T00:25:40.993Z,22.50
2018-04-19T00:26:41.065Z,22.50
2018-04-19T00:27:41.065Z,22.50
2018-04-19T00:28:41.011Z,22.50
2018-04-19T00:29:41.032Z,22.50
2018-04-19T00:30:40.988Z,45.00
2018-04-19T00:31:41.061Z,45.00
2018-04-19T00:32:41.058Z,45.00
2018-04-19T00:33:41.060Z,45.00
2018-04-19T00:34:40.993Z,67.50
2018-04-19T00:35:41.064Z,45.00
2018-04-19T00:36:41.064Z,45.00
2018-04-19T00:37:40.975Z,67.50
2018-04-19T00:38:41.034Z,45.00
2018-04-19T00:39:41.009Z,67.50
2018-04-19T00:40:41.004Z,22.50
2018-04-19T00:41:41.080Z,22.50
2018-04-19T00:42:41.077Z,22.50
2018-04-19T00:43:41.004Z,67.50
2018-04-19T00:44:41.009Z,67.50
2018-04-19T00:45:41.008Z,67.50
2018-04-19T00:46:41.007Z,67.50
2018-04-19T00:47:41.083Z,45.00
2018-04-19T00:48:41.010Z,22.50
2018-04-19T00:49:41.011Z,22.50
2018-04-19T00:50:40.965Z,45.00
2018-04-19T00:51:41.011Z,67.50
2018-04-19T00:52:41.081Z,67.50
2018-04-19T00:53:41.083Z,45.00
2018-04-19T00:54:41.014Z,67.50
2018-04-19T00:55:41.017Z,67.50
2018-04-19T00:56:41.087Z,67.50
2018-04-19T00:57:41.088Z,67.50
2018-04-19T00:58:41.089Z,67.50
2018-04-19T00:59:41.091Z,45.00
2018-04-19T01:00:41.022Z,22.50
2018-04-19T01:01:41.015Z,22.50
2018-04-19T01:02:41.094Z,22.50
2018-04-19T01:03:41.018Z,22.50
2018-04-19T01:04:41.099Z,22.50
2018-04-19T01:05:41.021Z,45.00
2018-04-19T01:06:41.020Z,67.50
2018-04-19T01:07:41.025Z,22.50
2018-04-19T01:08:41.027Z,247.50
2018-04-19T01:09:41.009Z,315.00
2018-04-19T01:10:41.090Z,67.50
2018-04-19T01:11:40.994Z,0.00
2018-04-19T01:12:41.119Z,22.50
2018-04-19T01:13:41.113Z,45.00
2018-04-19T01:14:41.059Z,45.00
2018-04-19T01:15:41.371Z,45.00
2018-04-19T01:16:41.067Z,22.50
2018-04-19T01:17:40.992Z,67.50
2018-04-19T01:18:41.066Z,45.00
2018-04-19T01:19:41.002Z,90.00
2018-04-19T01:20:41.059Z,202.50
2018-04-19T01:21:41.132Z,337.50
2018-04-19T01:22:41.065Z,337.50
2018-04-19T01:23:41.118Z,337.50
2018-04-19T01:24:41.129Z,315.00
2018-04-19T01:25:41.124Z,90.00
2018-04-19T01:26:41.101Z,22.50
2018-04-19T01:27:41.135Z,22.50
2018-04-19T01:28:41.043Z,22.50
2018-04-19T01:29:41.028Z,45.00
2018-04-19T01:30:41.045Z,45.00
2018-04-19T01:31:41.142Z,45.00
2018-04-19T01:32:41.025Z,45.00
2018-04-19T01:33:41.106Z,45.00
2018-04-19T01:34:41.133Z,45.00
2018-04-19T01:35:41.080Z,67.50
2018-04-19T01:36:41.143Z,67.50
2018-04-19T01:37:41.142Z,45.00
2018-04-19T01:38:41.141Z,67.50
2018-04-19T01:39:41.071Z,67.50
2018-04-19T01:40:41.112Z,67.50
2018-04-19T01:41:41.079Z,67.50
2018-04-19T01:42:41.033Z,45.00
2018-04-19T01:43:41.110Z,45.00
2018-04-19T01:44:41.114Z,45.00
2018-04-19T01:45:41.091Z,67.50
2018-04-19T01:46:41.013Z,67.50
2018-04-19T01:47:41.143Z,45.00
2018-04-19T01:48:41.020Z,67.50
2018-04-19T01:49:41.080Z,67.50
2018-04-19T01:50:41.155Z,67.50
2018-04-19T01:51:41.123Z,67.50
2018-04-19T01:52:41.121Z,45.00
2018-04-19T01:53:41.080Z,45.00
2018-04-19T01:54:41.125Z,45.00
2018-04-19T01:55:41.161Z,45.00
2018-04-19T01:56:41.142Z,67.50
2018-04-19T01:57:41.127Z,45.00
2018-04-19T01:58:41.079Z,22.50
2018-04-19T01:59:41.147Z,45.00
2018-04-19T02:00:41.160Z,22.50
2018-04-19T02:01:41.092Z,22.50
2018-04-19T02:02:41.124Z,22.50
2018-04-19T02:03:41.030Z,22.50
2018-04-19T02:04:41.101Z,247.50
2018-04-19T02:05:41.123Z,292.50
2018-04-19T02:06:41.033Z,90.00
2018-04-19T02:07:41.107Z,22.50
2018-04-19T02:08:41.153Z,22.50
2018-04-19T02:09:41.092Z,67.50
2018-04-19T02:10:41.095Z,90.00
2018-04-19T02:11:41.188Z,67.50
2018-04-19T02:12:41.157Z,67.50
2018-04-19T02:13:41.158Z,67.50
2018-04-19T02:14:41.134Z,67.50
2018-04-19T02:15:41.153Z,67.50
2018-04-19T02:16:41.055Z,67.50
2018-04-19T02:17:41.163Z,67.50
2018-04-19T02:18:41.155Z,67.50
2018-04-19T02:19:41.217Z,90.00
2018-04-19T02:20:41.043Z,45.00
2018-04-19T02:21:41.114Z,45.00
2018-04-19T02:22:41.179Z,45.00
2018-04-19T02:23:41.111Z,45.00
2018-04-19T02:24:41.101Z,45.00
2018-04-19T02:25:41.136Z,67.50
2018-04-19T02:26:41.140Z,45.00
2018-04-19T02:27:41.164Z,45.00
2018-04-19T02:28:41.041Z,45.00
2018-04-19T02:29:41.045Z,45.00
2018-04-19T02:30:41.162Z,67.50
2018-04-19T02:31:41.202Z,67.50
2018-04-19T02:32:41.122Z,67.50
2018-04-19T02:33:41.171Z,67.50
2018-04-19T02:34:41.180Z,67.50
2018-04-19T02:35:41.097Z,45.00
2018-04-19T02:36:41.051Z,67.50
2018-04-19T02:37:41.180Z,112.50
2018-04-19T02:38:41.145Z,157.50
2018-04-19T02:39:41.123Z,157.50
2018-04-19T02:40:41.156Z,67.50
2018-04-19T02:41:41.053Z,45.00
2018-04-19T02:42:41.182Z,112.50
2018-04-19T02:43:41.181Z,292.50
2018-04-19T02:44:41.113Z,337.50
2018-04-19T02:45:41.193Z,90.00
2018-04-19T02:46:41.157Z,45.00
2018-04-19T02:47:41.169Z,45.00
2018-04-19T02:48:41.129Z,45.00
2018-04-19T02:49:41.183Z,45.00
2018-04-19T02:50:41.186Z,67.50
2018-04-19T02:51:41.085Z,67.50
2018-04-19T02:52:41.172Z,45.00
2018-04-19T02:53:41.107Z,45.00
2018-04-19T02:54:41.130Z,22.50
2018-04-19T02:55:41.118Z,0.00
2018-04-19T02:56:41.094Z,22.50
2018-04-19T02:57:41.072Z,22.50
2018-04-19T02:58:41.161Z,315.00
2018-04-19T02:59:41.162Z,157.50
2018-04-19T03:00:41.062Z,135.00
2018-04-19T03:01:41.196Z,0.00
2018-04-19T03:02:41.221Z,0.00
2018-04-19T03:03:41.079Z,22.50
2018-04-19T03:04:41.159Z,247.50
2018-04-19T03:05:41.159Z,67.50
2018-04-19T03:06:41.073Z,225.00
2018-04-19T03:07:41.199Z,337.50
2018-04-19T03:08:41.183Z,315.00
2018-04-19T03:09:41.186Z,270.00
2018-04-19T03:10:41.170Z,202.50
2018-04-19T03:11:41.205Z,292.50
2018-04-19T03:12:41.145Z,45.00
2018-04-19T03:13:41.142Z,247.50
2018-04-19T03:14:41.169Z,67.50
2018-04-19T03:15:41.146Z,112.50
2018-04-19T03:16:41.176Z,292.50
2018-04-19T03:17:41.168Z,337.50
2018-04-19T03:18:41.226Z,67.50
2018-04-19T03:19:41.210Z,22.50
2018-04-19T03:20:41.148Z,22.50
2018-04-19T03:21:41.197Z,90.00
2018-04-19T03:22:41.145Z,45.00
2018-04-19T03:23:41.179Z,45.00
2018-04-19T03:24:41.172Z,67.50
2018-04-19T03:25:41.181Z,157.50
2018-04-19T03:26:41.205Z,135.00
2018-04-19T03:27:41.151Z,112.50
2018-04-19T03:28:41.097Z,90.00
2018-04-19T03:29:41.137Z,67.50
2018-04-19T03:30:41.118Z,112.50
2018-04-19T03:31:41.158Z,67.50
2018-04-19T03:32:41.161Z,90.00
2018-04-19T03:33:41.243Z,45.00
2018-04-19T03:34:41.159Z,45.00
2018-04-19T03:35:41.146Z,22.50
2018-04-19T03:36:41.220Z,90.00
2018-04-19T03:37:41.234Z,135.00
2018-04-19T03:38:41.147Z,292.50
2018-04-19T03:39:41.147Z,247.50
2018-04-19T03:40:41.243Z,270.00
2018-04-19T03:41:41.107Z,135.00
2018-04-19T03:42:41.127Z,22.50
2018-04-19T03:43:41.090Z,135.00
2018-04-19T03:44:41.105Z,22.50
2018-04-19T03:45:41.159Z,22.50
2018-04-19T03:46:41.185Z,22.50
2018-04-19T03:47:41.171Z,22.50
2018-04-19T03:48:41.092Z,22.50
2018-04-19T03:49:41.159Z,22.50
2018-04-19T03:50:41.171Z,67.50
2018-04-19T03:51:41.154Z,45.00
2018-04-19T03:52:41.174Z,67.50
2018-04-19T03:53:41.128Z,45.00
2018-04-19T03:54:41.219Z,45.00
2018-04-19T03:55:41.111Z,22.50
2018-04-19T03:56:41.166Z,22.50
2018-04-19T03:57:41.222Z,22.50
2018-04-19T03:58:41.192Z,45.00
2018-04-19T03:59:41.234Z,45.00
2018-04-19T04:00:41.198Z,45.00
2018-04-19T04:01:41.169Z,45.00
2018-04-19T04:02:41.128Z,45.00
2018-04-19T04:03:41.128Z,45.00
2018-04-19T04:04:41.208Z,45.00
2018-04-19T04:05:41.138Z,45.00
2018-04-19T04:06:41.228Z,45.00
2018-04-19T04:07:41.201Z,22.50
2018-04-19T04:08:41.142Z,22.50
2018-04-19T04:09:41.125Z,45.00
2018-04-19T04:10:41.140Z,22.50
2018-04-19T04:11:41.209Z,22.50
2018-04-19T04:12:41.226Z,22.50
2018-04-19T04:13:41.131Z,22.50
2018-04-19T04:14:41.243Z,45.00
2018-04-19T04:15:41.238Z,45.00
2018-04-19T04:16:41.231Z,22.50
2018-04-19T04:17:41.131Z,45.00
2018-04-19T04:18:41.236Z,45.00
2018-04-19T04:19:41.237Z,45.00
2018-04-19T04:20:41.236Z,45.00
2018-04-19T04:21:41.183Z,45.00
2018-04-19T04:22:41.133Z,67.50
2018-04-19T04:23:41.176Z,67.50
2018-04-19T04:24:41.226Z,45.00
2018-04-19T04:25:41.221Z,22.50
2018-04-19T04:26:41.226Z,22.50
2018-04-19T04:27:41.242Z,45.00
2018-04-19T04:28:41.122Z,135.00
2018-04-19T04:29:41.145Z,45.00
2018-04-19T04:30:41.249Z,45.00
2018-04-19T04:31:41.240Z,22.50
2018-04-19T04:32:41.235Z,22.50
2018-04-19T04:33:41.246Z,45.00
2018-04-19T04:34:41.138Z,45.00
2018-04-19T04:35:41.184Z,45.00
2018-04-19T04:36:41.194Z,45.00
2018-04-19T04:37:41.179Z,45.00
2018-04-19T04:38:41.249Z,22.50
2018-04-19T04:39:41.224Z,157.50
2018-04-19T04:40:41.220Z,22.50
2018-04-19T04:41:41.248Z,22.50
2018-04-19T04:42:41.124Z,22.50
2018-04-19T04:43:41.129Z,45.00
2018-04-19T04:44:41.231Z,22.50
2018-04-19T04:45:41.221Z,22.50
2018-04-19T04:46:41.254Z,45.00
2018-04-19T04:47:41.134Z,45.00
2018-04-19T04:48:41.128Z,45.00
2018-04-19T04:49:41.228Z,22.50
2018-04-19T04:50:41.169Z,45.00
2018-04-19T04:51:41.230Z,22.50
2018-04-19T04:52:41.229Z,22.50
2018-04-19T04:53:41.171Z,45.00
2018-04-19T04:54:41.228Z,22.50
2018-04-19T04:55:41.237Z,45.00
2018-04-19T04:56:41.164Z,45.00
2018-04-19T04:57:41.234Z,45.00
2018-04-19T04:58:41.169Z,22.50
2018-04-19T04:59:41.167Z,22.50
2018-04-19T05:00:41.166Z,45.00
2018-04-19T05:01:41.168Z,45.00
2018-04-19T05:02:41.240Z,45.00
2018-04-19T05:03:41.124Z,45.00
2018-04-19T05:04:41.243Z,45.00
2018-04-19T05:05:41.149Z,90.00
2018-04-19T05:06:41.170Z,67.50
2018-04-19T05:07:41.245Z,22.50
2018-04-19T05:08:41.173Z,270.00
2018-04-19T05:09:41.243Z,45.00
2018-04-19T05:10:41.172Z,135.00
2018-04-19T05:11:41.113Z,45.00
2018-04-19T05:12:41.233Z,22.50
2018-04-19T05:13:41.232Z,67.50
2018-04-19T05:14:41.177Z,292.50
2018-04-19T05:15:41.177Z,45.00
2018-04-19T05:16:41.137Z,22.50
2018-04-19T05:17:41.100Z,22.50
2018-04-19T05:18:41.145Z,22.50
2018-04-19T05:19:41.197Z,180.00
2018-04-19T05:20:41.142Z,22.50
2018-04-19T05:21:41.212Z,45.00
2018-04-19T05:22:41.140Z,45.00
2018-04-19T05:23:41.177Z,157.50
2018-04-19T05:24:41.238Z,157.50
2018-04-19T05:25:41.148Z,90.00
2018-04-19T05:26:41.146Z,22.50
2018-04-19T05:27:41.121Z,22.50
2018-04-19T05:28:41.183Z,22.50
2018-04-19T05:29:41.191Z,22.50
2018-04-19T05:30:41.256Z,22.50
2018-04-19T05:31:41.255Z,67.50
2018-04-19T05:32:41.278Z,22.50
2018-04-19T05:33:41.217Z,22.50
2018-04-19T05:34:41.281Z,22.50
2018-04-19T05:35:41.266Z,45.00
2018-04-19T05:36:41.264Z,22.50
2018-04-19T05:37:41.259Z,22.50
2018-04-19T05:38:41.285Z,22.50
2018-04-19T05:39:41.257Z,22.50
2018-04-19T05:40:41.190Z,22.50
2018-04-19T05:41:41.195Z,22.50
2018-04-19T05:42:41.265Z,22.50
2018-04-19T05:43:41.265Z,67.50
2018-04-19T05:44:41.268Z,202.50
2018-04-19T05:45:41.266Z,225.00
2018-04-19T05:46:41.267Z,112.50
2018-04-19T05:47:41.276Z,90.00
2018-04-19T05:48:41.203Z,202.50
2018-04-19T05:49:41.271Z,315.00
2018-04-19T05:50:41.275Z,180.00
2018-04-19T05:51:41.274Z,157.50
2018-04-19T05:52:41.269Z,45.00
2018-04-19T05:53:41.105Z,22.50
2018-04-19T05:54:41.197Z,45.00
2018-04-19T05:55:41.242Z,112.50
2018-04-19T05:56:41.271Z,45.00
2018-04-19T05:57:41.204Z,112.50
2018-04-19T05:58:41.205Z,45.00
2018-04-19T05:59:41.289Z,67.50
2018-04-19T06:00:41.191Z,45.00
2018-04-19T06:01:41.300Z,202.50
2018-04-19T06:02:41.246Z,292.50
2018-04-19T06:03:41.214Z,270.00
2018-04-19T06:04:41.216Z,202.50
2018-04-19T06:05:41.319Z,22.50
2018-04-19T06:06:41.276Z,112.50
2018-04-19T06:07:41.247Z,112.50
2018-04-19T06:08:41.396Z,22.50
2018-04-19T06:09:41.304Z,22.50
2018-04-19T06:10:41.299Z,225.00
2018-04-19T06:11:41.246Z,22.50
2018-04-19T06:12:41.188Z,180.00
2018-04-19T06:13:41.278Z,45.00
2018-04-19T06:14:41.302Z,90.00
2018-04-19T06:15:41.264Z,247.50
2018-04-19T06:16:41.220Z,135.00
2018-04-19T06:17:41.305Z,135.00
2018-04-19T06:18:41.259Z,202.50
2018-04-19T06:19:41.260Z,135.00
2018-04-19T06:20:41.261Z,135.00
2018-04-19T06:21:41.206Z,22.50
2018-04-19T06:22:41.306Z,22.50
2018-04-19T06:23:41.250Z,90.00
2018-04-19T06:24:41.254Z,0.00
2018-04-19T06:25:41.329Z,22.50
2018-04-19T06:26:41.265Z,67.50
2018-04-19T06:27:41.315Z,135.00
2018-04-19T06:28:41.265Z,45.00
2018-04-19T06:29:41.342Z,112.50
2018-04-19T06:30:41.256Z,22.50
2018-04-19T06:31:41.315Z,135.00
2018-04-19T06:32:41.318Z,22.50
2018-04-19T06:33:41.293Z,202.50
2018-04-19T06:34:41.319Z,67.50
2018-04-19T06:35:41.331Z,90.00
2018-04-19T06:36:41.293Z,45.00
2018-04-19T06:37:41.302Z,67.50
2018-04-19T06:38:41.298Z,112.50
2018-04-19T06:39:41.302Z,112.50
2018-04-19T06:40:41.297Z,67.50
2018-04-19T06:41:41.335Z,45.00
2018-04-19T06:42:41.223Z,90.00
2018-04-19T06:43:41.295Z,67.50
2018-04-19T06:44:41.335Z,90.00
2018-04-19T06:45:41.295Z,67.50
2018-04-19T06:46:41.269Z,112.50
2018-04-19T06:47:41.263Z,90.00
2018-04-19T06:48:41.325Z,90.00
2018-04-19T06:49:41.278Z,67.50
2018-04-19T06:50:41.234Z,67.50
2018-04-19T06:51:41.320Z,135.00
2018-04-19T06:52:41.238Z,90.00
2018-04-19T06:53:41.236Z,67.50
2018-04-19T06:54:41.257Z,67.50
2018-04-19T06:55:41.373Z,22.50
2018-04-19T06:56:41.313Z,67.50
2018-04-19T06:57:41.311Z,67.50
2018-04-19T06:58:41.321Z,45.00
2018-04-19T06:59:41.240Z,90.00
2018-04-19T07:00:41.245Z,112.50
2018-04-19T07:01:41.314Z,135.00
2018-04-19T07:02:41.243Z,157.50
2018-04-19T07:03:41.317Z,157.50
2018-04-19T07:04:41.243Z,202.50
2018-04-19T07:05:41.247Z,180.00
2018-04-19T07:06:41.315Z,157.50
2018-04-19T07:07:41.324Z,112.50
2018-04-19T07:08:41.251Z,180.00
2018-04-19T07:09:41.251Z,157.50
2018-04-19T07:10:41.357Z,157.50
2018-04-19T07:11:41.239Z,157.50
2018-04-19T07:12:41.233Z,157.50
2018-04-19T07:13:41.299Z,180.00
2018-04-19T07:14:41.376Z,135.00
2018-04-19T07:15:41.226Z,180.00
2018-04-19T07:16:41.227Z,135.00
2018-04-19T07:17:41.289Z,135.00
2018-04-19T07:18:41.225Z,157.50
2018-04-19T07:19:41.286Z,135.00
2018-04-19T07:20:41.359Z,90.00
2018-04-19T07:21:41.371Z,157.50
2018-04-19T07:22:41.331Z,180.00
2018-04-19T07:23:41.328Z,180.00
2018-04-19T07:24:41.247Z,157.50
2018-04-19T07:25:41.323Z,202.50
2018-04-19T07:26:41.388Z,180.00
2018-04-19T07:27:41.325Z,202.50
2018-04-19T07:28:41.328Z,180.00
2018-04-19T07:29:41.359Z,180.00
2018-04-19T07:30:41.194Z,225.00
2018-04-19T07:31:41.285Z,180.00
2018-04-19T07:32:41.314Z,157.50
2018-04-19T07:33:41.210Z,112.50
2018-04-19T07:34:41.318Z,90.00
2018-04-19T07:35:41.201Z,247.50
2018-04-19T07:36:41.205Z,135.00
2018-04-19T07:37:41.320Z,135.00
2018-04-19T07:38:41.319Z,180.00
2018-04-19T07:39:41.231Z,157.50
2018-04-19T07:40:41.256Z,157.50
2018-04-19T07:41:41.254Z,157.50
2018-04-19T07:42:41.227Z,135.00
2018-04-19T07:43:41.255Z,112.50
2018-04-19T07:44:41.211Z,90.00
2018-04-19T07:45:41.337Z,112.50
2018-04-19T07:46:41.329Z,157.50
2018-04-19T07:47:41.264Z,157.50
2018-04-19T07:48:41.338Z,112.50
2018-04-19T07:49:41.302Z,112.50
2018-04-19T07:50:41.295Z,112.50
2018-04-19T07:51:41.344Z,202.50
2018-04-19T07:52:41.348Z,157.50
2018-04-19T07:53:41.276Z,157.50
2018-04-19T07:54:41.347Z,135.00
2018-04-19T07:55:41.274Z,112.50
2018-04-19T07:56:41.277Z,157.50
2018-04-19T07:57:41.275Z,180.00
2018-04-19T07:58:41.238Z,135.00
2018-04-19T07:59:41.279Z,135.00
2018-04-19T08:00:41.314Z,135.00
2018-04-19T08:01:41.313Z,157.50
2018-04-19T08:02:41.388Z,157.50
2018-04-19T08:03:41.272Z,112.50
2018-04-19T08:04:41.358Z,135.00
2018-04-19T08:05:41.385Z,90.00
2018-04-19T08:06:41.269Z,157.50
2018-04-19T08:07:41.352Z,90.00
2018-04-19T08:08:41.379Z,112.50
2018-04-19T08:09:41.331Z,157.50
2018-04-19T08:10:41.285Z,180.00
2018-04-19T08:11:41.358Z,135.00
2018-04-19T08:12:41.391Z,180.00
2018-04-19T08:13:41.359Z,90.00
2018-04-19T08:14:41.288Z,90.00
2018-04-19T08:15:41.363Z,67.50
2018-04-19T08:16:41.292Z,135.00
2018-04-19T08:17:41.288Z,112.50
2018-04-19T08:18:41.362Z,112.50
2018-04-19T08:19:41.363Z,90.00
2018-04-19T08:20:41.355Z,180.00
2018-04-19T08:21:41.382Z,157.50
2018-04-19T08:22:41.383Z,157.50
2018-04-19T08:23:41.387Z,135.00
2018-04-19T08:24:41.338Z,180.00
2018-04-19T08:25:41.370Z,157.50
2018-04-19T08:26:41.366Z,157.50
2018-04-19T08:27:41.324Z,135.00
2018-04-19T08:28:41.381Z,90.00
2018-04-19T08:29:41.340Z,180.00
2018-04-19T08:30:41.285Z,180.00
2018-04-19T08:31:41.275Z,180.00
2018-04-19T08:32:41.358Z,157.50
2018-04-19T08:33:41.291Z,157.50
2018-04-19T08:34:41.277Z,180.00
2018-04-19T08:35:41.272Z,157.50
2018-04-19T08:36:41.255Z,135.00
2018-04-19T08:37:41.325Z,90.00
2018-04-19T08:38:41.325Z,90.00
2018-04-19T08:39:41.294Z,112.50
2018-04-19T08:40:41.373Z,112.50
2018-04-19T08:41:41.382Z,180.00
2018-04-19T08:42:41.305Z,135.00
2018-04-19T08:43:41.376Z,180.00
2018-04-19T08:44:41.304Z,157.50
2018-04-19T08:45:41.372Z,157.50
2018-04-19T08:46:41.312Z,157.50
2018-04-19T08:47:41.379Z,112.50
2018-04-19T08:48:41.309Z,157.50
2018-04-19T08:49:41.320Z,90.00
2018-04-19T08:50:41.316Z,90.00
2018-04-19T08:51:41.280Z,135.00
2018-04-19T08:52:41.414Z,90.00
2018-04-19T08:53:41.406Z,157.50
2018-04-19T08:54:41.341Z,135.00
2018-04-19T08:55:41.341Z,90.00
2018-04-19T08:56:41.321Z,112.50
2018-04-19T08:57:41.453Z,180.00
2018-04-19T08:58:41.403Z,90.00
2018-04-19T08:59:41.305Z,90.00
2018-04-19T09:00:41.350Z,67.50
2018-04-19T09:01:41.359Z,135.00
2018-04-19T09:02:41.400Z,135.00
2018-04-19T09:03:41.410Z,157.50
2018-04-19T09:04:41.324Z,135.00
2018-04-19T09:05:41.406Z,112.50
2018-04-19T09:06:41.299Z,67.50
2018-04-19T09:07:41.329Z,90.00
2018-04-19T09:08:41.391Z,90.00
2018-04-19T09:09:41.308Z,112.50
2018-04-19T09:10:41.339Z,157.50
2018-04-19T09:11:41.412Z,90.00
2018-04-19T09:12:41.324Z,112.50
2018-04-19T09:13:41.288Z,67.50
2018-04-19T09:14:41.323Z,90.00
2018-04-19T09:15:41.417Z,90.00
2018-04-19T09:16:41.324Z,135.00
2018-04-19T09:17:41.402Z,157.50
2018-04-19T09:18:41.328Z,180.00
2018-04-19T09:19:41.401Z,180.00
2018-04-19T09:20:41.327Z,157.50
2018-04-19T09:21:41.329Z,135.00
2018-04-19T09:22:41.399Z,247.50
2018-04-19T09:23:41.333Z,180.00
2018-04-19T09:24:41.403Z,90.00
2018-04-19T09:25:41.400Z,135.00
2018-04-19T09:26:41.409Z,157.50
2018-04-19T09:27:41.407Z,112.50
2018-04-19T09:28:41.405Z,90.00
2018-04-19T09:29:41.333Z,135.00
2018-04-19T09:30:41.405Z,202.50
2018-04-19T09:31:41.403Z,202.50
2018-04-19T09:32:41.340Z,90.00
2018-04-19T09:33:41.345Z,112.50
2018-04-19T09:34:41.404Z,157.50
2018-04-19T09:35:41.366Z,157.50
2018-04-19T09:36:41.343Z,112.50
2018-04-19T09:37:41.409Z,90.00
2018-04-19T09:38:41.411Z,112.50
2018-04-19T09:39:41.347Z,90.00
2018-04-19T09:40:41.342Z,112.50
2018-04-19T09:41:41.382Z,90.00
2018-04-19T09:42:41.331Z,90.00
2018-04-19T09:43:41.413Z,67.50
2018-04-19T09:44:41.471Z,90.00
2018-04-19T09:45:41.411Z,157.50
2018-04-19T09:46:41.343Z,90.00
2018-04-19T09:47:41.386Z,157.50
2018-04-19T09:48:41.422Z,202.50
2018-04-19T09:49:41.414Z,135.00
2018-04-19T09:50:41.361Z,112.50
2018-04-19T09:51:41.423Z,202.50
2018-04-19T09:52:41.349Z,135.00
2018-04-19T09:53:41.420Z,157.50
2018-04-19T09:54:41.353Z,180.00
2018-04-19T09:55:41.355Z,135.00
2018-04-19T09:56:41.420Z,90.00
2018-04-19T09:57:41.363Z,180.00
2018-04-19T09:58:41.424Z,225.00
2018-04-19T09:59:41.353Z,112.50
2018-04-19T10:00:41.433Z,90.00
2018-04-19T10:01:41.328Z,90.00
2018-04-19T10:02:41.351Z,135.00
2018-04-19T10:03:41.456Z,180.00
2018-04-19T10:04:41.425Z,112.50
2018-04-19T10:05:41.327Z,135.00
2018-04-19T10:06:41.396Z,112.50
2018-04-19T10:07:41.425Z,157.50
2018-04-19T10:08:41.454Z,112.50
2018-04-19T10:09:41.503Z,112.50
2018-04-19T10:10:41.406Z,112.50
2018-04-19T10:11:41.418Z,67.50
2018-04-19T10:12:41.429Z,90.00
2018-04-19T10:13:41.417Z,90.00
2018-04-19T10:14:41.381Z,90.00
2018-04-19T10:15:41.319Z,90.00
2018-04-19T10:16:41.306Z,90.00
2018-04-19T10:17:41.437Z,157.50
2018-04-19T10:18:41.422Z,157.50
2018-04-19T10:19:41.442Z,112.50
2018-04-19T10:20:41.429Z,157.50
2018-04-19T10:21:41.355Z,90.00
2018-04-19T10:22:41.333Z,180.00
2018-04-19T10:23:41.341Z,225.00
2018-04-19T10:24:41.263Z,135.00
2018-04-19T10:25:41.335Z,202.50
2018-04-19T10:26:41.345Z,180.00
2018-04-19T10:27:41.390Z,180.00
2018-04-19T10:28:41.397Z,90.00
2018-04-19T10:29:41.295Z,90.00
2018-04-19T10:30:41.348Z,90.00
2018-04-19T10:31:41.375Z,90.00
2018-04-19T10:32:41.369Z,90.00
2018-04-19T10:33:41.379Z,90.00
2018-04-19T10:34:41.447Z,112.50
2018-04-19T10:35:41.374Z,180.00
2018-04-19T10:36:41.452Z,135.00
2018-04-19T10:37:41.376Z,90.00
2018-04-19T10:38:41.377Z,90.00
2018-04-19T10:39:41.449Z,90.00
2018-04-19T10:40:41.403Z,180.00
2018-04-19T10:41:41.343Z,157.50
2018-04-19T10:42:41.380Z,157.50
2018-04-19T10:43:41.428Z,225.00
2018-04-19T10:44:41.400Z,157.50
2018-04-19T10:45:41.433Z,112.50
2018-04-19T10:46:41.381Z,180.00
2018-04-19T10:47:41.438Z,90.00
2018-04-19T10:48:41.349Z,112.50
2018-04-19T10:49:41.430Z,180.00
2018-04-19T10:50:41.437Z,180.00
2018-04-19T10:51:41.419Z,157.50
2018-04-19T10:52:41.487Z,135.00
2018-04-19T10:53:41.490Z,157.50
2018-04-19T10:54:41.472Z,202.50
2018-04-19T10:55:41.470Z,225.00
2018-04-19T10:56:41.432Z,157.50
2018-04-19T10:57:41.469Z,292.50
2018-04-19T10:58:41.459Z,270.00
2018-04-19T10:59:41.492Z,180.00
2018-04-19T11:00:41.461Z,270.00
2018-04-19T11:01:41.395Z,225.00
2018-04-19T11:02:41.466Z,225.00
2018-04-19T11:03:41.392Z,247.50
2018-04-19T11:04:41.461Z,135.00
2018-04-19T11:05:41.479Z,135.00
2018-04-19T11:06:41.398Z,180.00
2018-04-19T11:07:41.427Z,180.00
2018-04-19T11:08:41.393Z,202.50
2018-04-19T11:09:41.472Z,90.00
2018-04-19T11:10:41.467Z,202.50
2018-04-19T11:11:41.353Z,270.00
2018-04-19T11:12:41.473Z,247.50
2018-04-19T11:13:41.392Z,225.00
2018-04-19T11:14:41.466Z,112.50
2018-04-19T11:15:41.387Z,225.00
2018-04-19T11:16:41.455Z,270.00
2018-04-19T11:17:41.495Z,270.00
2018-04-19T11:18:41.468Z,180.00
2018-04-19T11:19:41.411Z,135.00
2018-04-19T11:20:41.413Z,180.00
2018-04-19T11:21:41.424Z,180.00
2018-04-19T11:22:41.345Z,180.00
2018-04-19T11:23:41.346Z,157.50
2018-04-19T11:24:41.396Z,135.00
2018-04-19T11:25:41.375Z,157.50
2018-04-19T11:26:41.381Z,90.00
2018-04-19T11:27:41.463Z,202.50
2018-04-19T11:28:41.459Z,157.50
2018-04-19T11:29:41.417Z,180.00
2018-04-19T11:30:41.450Z,135.00
2018-04-19T11:31:41.504Z,202.50
2018-04-19T11:32:41.518Z,135.00
2018-04-19T11:33:41.485Z,202.50
2018-04-19T11:34:41.387Z,202.50
2018-04-19T11:35:41.419Z,202.50
2018-04-19T11:36:41.548Z,112.50
2018-04-19T11:37:41.450Z,90.00
2018-04-19T11:38:41.499Z,157.50
2018-04-19T11:39:41.443Z,90.00
2018-04-19T11:40:41.485Z,135.00
2018-04-19T11:41:41.392Z,180.00
2018-04-19T11:42:41.418Z,180.00
2018-04-19T11:43:41.521Z,157.50
2018-04-19T11:44:41.445Z,157.50
2018-04-19T11:45:41.444Z,180.00
2018-04-19T11:46:41.482Z,202.50
2018-04-19T11:47:41.459Z,135.00
2018-04-19T11:48:41.459Z,202.50
2018-04-19T11:49:41.459Z,135.00
2018-04-19T11:50:41.542Z,180.00
2018-04-19T11:51:41.517Z,180.00
2018-04-19T11:52:41.492Z,270.00
2018-04-19T11:53:41.422Z,180.00
2018-04-19T11:54:41.499Z,202.50
2018-04-19T11:55:41.425Z,202.50
2018-04-19T11:56:41.498Z,135.00
2018-04-19T11:57:41.500Z,135.00
2018-04-19T11:58:41.430Z,135.00
2018-04-19T11:59:41.429Z,135.00
2018-04-19T12:00:41.499Z,135.00
2018-04-19T12:01:41.465Z,112.50
2018-04-19T12:02:41.416Z,157.50
2018-04-19T12:03:41.501Z,157.50
2018-04-19T12:04:41.420Z,157.50
2018-04-19T12:05:41.397Z,112.50
2018-04-19T12:06:41.465Z,180.00
2018-04-19T12:07:41.539Z,180.00
2018-04-19T12:08:41.518Z,157.50
2018-04-19T12:09:41.465Z,157.50
2018-04-19T12:10:41.505Z,112.50
2018-04-19T12:11:41.415Z,135.00
2018-04-19T12:12:41.406Z,135.00
2018-04-19T12:13:41.488Z,90.00
2018-04-19T12:14:41.476Z,157.50
2018-04-19T12:15:41.533Z,225.00
2018-04-19T12:16:41.473Z,202.50
2018-04-19T12:17:41.480Z,157.50
2018-04-19T12:18:41.541Z,180.00
2018-04-19T12:19:41.428Z,135.00
2018-04-19T12:20:41.487Z,225.00
2018-04-19T12:21:41.508Z,135.00
2018-04-19T12:22:41.442Z,180.00
2018-04-19T12:23:41.400Z,112.50
2018-04-19T12:24:41.511Z,157.50
2018-04-19T12:25:41.449Z,157.50
2018-04-19T12:26:41.512Z,135.00
2018-04-19T12:27:41.449Z,157.50
2018-04-19T12:28:41.514Z,157.50
2018-04-19T12:29:41.448Z,90.00
2018-04-19T12:30:41.518Z,180.00
2018-04-19T12:31:41.468Z,180.00
2018-04-19T12:32:41.486Z,112.50
2018-04-19T12:33:41.446Z,112.50
2018-04-19T12:34:41.515Z,135.00
2018-04-19T12:35:41.521Z,157.50
2018-04-19T12:36:41.546Z,247.50
2018-04-19T12:37:41.699Z,180.00
2018-04-19T12:38:41.474Z,180.00
2018-04-19T12:39:41.556Z,157.50
2018-04-19T12:40:41.542Z,157.50
2018-04-19T12:41:41.528Z,157.50